createdAt,value
2023-01-12T00:02:14.025Z,101970.05
2023-01-12T00:04:41.093Z,101970.38
2023-01-12T00:07:12.331Z,101973.05
2023-01-12T00:09:39.372Z,101965.30
2023-01-12T00:12:08.294Z,101964.27
2023-01-12T00:14:35.928Z,101967.11
2023-01-12T00:17:03.390Z,101966.27
2023-01-12T00:19:31.869Z,101967.42
2023-01-12T00:22:09.640Z,101969.08
2023-01-12T00:24:41.198Z,101968.02
2023-01-12T00:27:10.368Z,101970.35
2023-01-12T00:29:37.772Z,101970.84
2023-01-12T00:32:05.700Z,101974.36
2023-01-12T00:34:32.846Z,101974.36
2023-01-12T00:37:00.409Z,101975.67
2023-01-12T00:39:27.520Z,101972.98
2023-01-12T00:42:13.310Z,101981.86
2023-01-12T00:45:12.680Z,101985.55
2023-01-12T00:47:39.772Z,101987.04
2023-01-12T00:50:07.134Z,101985.52
2023-01-12T00:52:34.170Z,101980.64
2023-01-12T00:55:01.211Z,101985.50
2023-01-12T00:57:28.825Z,101990.38
2023-01-12T00:59:58.401Z,101984.83
2023-01-12T01:02:29.513Z,101984.15
2023-01-12T01:04:56.854Z,101987.02
2023-01-12T01:07:24.212Z,101989.55
2023-01-12T01:09:51.456Z,101990.88
2023-01-12T01:12:18.759Z,101986.51
2023-01-12T01:14:47.441Z,101984.49
2023-01-12T01:17:14.808Z,101985.83
2023-01-12T01:19:43.510Z,101988.50
2023-01-12T01:22:11.046Z,101989.33
2023-01-12T01:24:38.253Z,101988.14
2023-01-12T01:27:05.345Z,101992.86
2023-01-12T01:29:34.508Z,101991.34
2023-01-12T01:32:01.509Z,101995.88
2023-01-12T01:34:28.739Z,101995.71
2023-01-12T01:36:55.853Z,101992.84
2023-01-12T01:39:22.895Z,101989.99
2023-01-12T01:41:49.948Z,101990.18
2023-01-12T01:44:29.404Z,101988.84
2023-01-12T01:47:05.599Z,101989.01
2023-01-12T01:49:34.916Z,101984.98
2023-01-12T01:52:30.049Z,101989.67
2023-01-12T01:55:07.142Z,101985.15
2023-01-12T01:57:39.891Z,101978.27
2023-01-12T02:00:07.475Z,101982.80
2023-01-12T02:02:34.565Z,101981.82
2023-01-12T02:05:01.622Z,101977.25
2023-01-12T02:07:28.722Z,101967.64
2023-01-12T02:09:55.767Z,101965.80
2023-01-12T02:12:41.484Z,101963.44
2023-01-12T02:15:27.636Z,101962.07
2023-01-12T02:18:10.833Z,101954.67
2023-01-12T02:20:44.112Z,101959.34
2023-01-12T02:23:49.293Z,101960.99
2023-01-12T02:26:38.169Z,101963.47
2023-01-12T02:29:30.117Z,101960.77
2023-01-12T02:32:16.027Z,101947.65
2023-01-12T02:34:56.780Z,101950.01
2023-01-12T02:37:46.858Z,101947.46
2023-01-12T02:40:35.528Z,101947.42
2023-01-12T02:43:18.320Z,101948.09
2023-01-12T02:45:54.792Z,101946.58
2023-01-12T02:48:44.159Z,101943.88
2023-01-12T02:52:02.825Z,101943.86
2023-01-12T02:54:29.970Z,101940.33
2023-01-12T02:57:00.054Z,101937.27
2023-01-12T02:59:41.518Z,101938.61
2023-01-12T03:02:13.948Z,101939.94
2023-01-12T03:04:41.621Z,101932.52
2023-01-12T03:07:31.309Z,101930.17
2023-01-12T03:10:26.569Z,101927.64
2023-01-12T03:12:55.282Z,101930.84
2023-01-12T03:15:23.359Z,101929.66
2023-01-12T03:18:14.110Z,101930.84
2023-01-12T03:20:48.215Z,101922.59
2023-01-12T03:23:27.713Z,101918.21
2023-01-12T03:25:55.203Z,101919.73
2023-01-12T03:28:22.241Z,101913.69
2023-01-12T03:30:57.211Z,101913.35
2023-01-12T03:33:25.260Z,101913.19
2023-01-12T03:36:08.531Z,101916.39
2023-01-12T03:38:54.089Z,101915.54
2023-01-12T03:41:24.322Z,101908.48
2023-01-12T03:43:51.405Z,101909.50
2023-01-12T03:46:27.526Z,101901.90
2023-01-12T03:49:30.163Z,101903.23
2023-01-12T03:51:57.397Z,101901.39
2023-01-12T03:54:24.768Z,101900.88
2023-01-12T03:56:51.810Z,101906.92
2023-01-12T03:59:18.959Z,101906.41
2023-01-12T04:01:46.785Z,101897.65
2023-01-12T04:04:13.874Z,101892.59
2023-01-12T04:06:41.123Z,101894.44
2023-01-12T04:09:08.323Z,101880.77
2023-01-12T04:11:54.156Z,101880.09
2023-01-12T04:14:21.304Z,101881.42
2023-01-12T04:16:48.464Z,101884.45
2023-01-12T04:19:15.671Z,101887.31
2023-01-12T04:22:01.522Z,101885.77
2023-01-12T04:24:28.624Z,101882.37
2023-01-12T04:26:55.659Z,101884.73
2023-01-12T04:29:22.657Z,101886.58
2023-01-12T04:31:49.724Z,101888.09
2023-01-12T04:34:16.796Z,101885.55
2023-01-12T04:36:43.899Z,101888.91
2023-01-12T04:39:11.150Z,101881.50
2023-01-12T04:41:38.303Z,101882.98
2023-01-12T04:44:05.436Z,101872.69
2023-01-12T04:46:32.485Z,101870.14
2023-01-12T04:48:59.534Z,101868.29
2023-01-12T04:51:27.001Z,101868.81
2023-01-12T04:53:54.137Z,101865.45
2023-01-12T04:56:21.248Z,101863.10
2023-01-12T04:58:48.348Z,101861.45
2023-01-12T05:01:19.364Z,101858.26
2023-01-12T05:03:47.204Z,101861.45
2023-01-12T05:06:14.262Z,101857.25
2023-01-12T05:08:59.872Z,101861.64
2023-01-12T05:11:28.734Z,101848.54
2023-01-12T05:13:56.747Z,101857.13
2023-01-12T05:16:24.127Z,101857.80
2023-01-12T05:18:52.936Z,101856.46
2023-01-12T05:21:22.143Z,101859.66
2023-01-12T05:23:50.084Z,101861.50
2023-01-12T05:26:17.210Z,101858.64
2023-01-12T05:28:44.351Z,101864.88
2023-01-12T05:31:14.243Z,101857.84
2023-01-12T05:33:42.253Z,101863.40
2023-01-12T05:36:11.275Z,101858.00
2023-01-12T05:38:38.397Z,101854.27
2023-01-12T05:41:07.338Z,101861.34
2023-01-12T05:43:52.882Z,101859.64
2023-01-12T05:46:30.288Z,101855.28
2023-01-12T05:48:57.918Z,101856.29
2023-01-12T05:51:26.593Z,101852.06
2023-01-12T05:53:54.789Z,101843.48
2023-01-12T05:56:25.877Z,101847.16
2023-01-12T05:58:53.587Z,101851.17
2023-01-12T06:01:21.162Z,101846.94
2023-01-12T06:03:49.949Z,101841.89
2023-01-12T06:06:17.912Z,101838.14
2023-01-12T06:08:45.557Z,101844.85
2023-01-12T06:11:32.673Z,101839.44
2023-01-12T06:14:00.441Z,101836.02
2023-01-12T06:16:27.987Z,101835.98
2023-01-12T06:18:55.756Z,101837.95
2023-01-12T06:21:23.326Z,101841.28
2023-01-12T06:23:50.463Z,101833.88
2023-01-12T06:26:17.616Z,101830.96
2023-01-12T06:28:44.656Z,101823.00
2023-01-12T06:31:12.910Z,101822.29
2023-01-12T06:33:40.214Z,101818.86
2023-01-12T06:36:08.379Z,101822.17
2023-01-12T06:38:37.258Z,101828.54
2023-01-12T06:41:09.033Z,101828.30
2023-01-12T06:43:36.161Z,101834.19
2023-01-12T06:46:03.375Z,101828.09
2023-01-12T06:48:39.001Z,101827.23
2023-01-12T06:51:06.627Z,101828.17
2023-01-12T06:53:33.772Z,101832.85
2023-01-12T06:56:00.827Z,101831.15
2023-01-12T06:58:27.924Z,101824.70
2023-01-12T07:00:54.998Z,101820.97
2023-01-12T07:03:22.207Z,101819.04
2023-01-12T07:05:49.371Z,101820.84
2023-01-12T07:08:19.489Z,101827.20
2023-01-12T07:10:47.047Z,101826.36
2023-01-12T07:13:14.145Z,101819.48
2023-01-12T07:15:41.299Z,101815.89
2023-01-12T07:18:08.455Z,101808.76
2023-01-12T07:20:35.612Z,101808.20
2023-01-12T07:23:02.891Z,101812.54
2023-01-12T07:25:30.005Z,101812.45
2023-01-12T07:27:57.752Z,101808.84
2023-01-12T07:30:25.449Z,101805.46
2023-01-12T07:32:52.846Z,101804.88
2023-01-12T07:35:20.052Z,101807.02
2023-01-12T07:37:50.476Z,101800.79
2023-01-12T07:40:18.033Z,101803.60
2023-01-12T07:42:45.170Z,101807.21
2023-01-12T07:45:12.856Z,101813.04
2023-01-12T07:47:40.088Z,101799.64
2023-01-12T07:50:07.619Z,101799.02
2023-01-12T07:52:35.119Z,101801.75
2023-01-12T07:55:02.196Z,101802.34
2023-01-12T07:57:29.717Z,101804.91
2023-01-12T07:59:56.875Z,101795.86
2023-01-12T08:02:23.941Z,101796.13
2023-01-12T08:04:51.144Z,101792.50
2023-01-12T08:07:18.305Z,101793.57
2023-01-12T08:09:45.469Z,101787.41
2023-01-12T08:12:12.762Z,101791.23
2023-01-12T08:14:41.148Z,101783.76
2023-01-12T08:17:11.471Z,101777.09
2023-01-12T08:19:44.373Z,101771.09
2023-01-12T08:22:16.026Z,101769.95
2023-01-12T08:24:46.904Z,101768.56
2023-01-12T08:27:13.967Z,101758.18
2023-01-12T08:29:44.242Z,101760.59
2023-01-12T08:32:13.485Z,101754.92
2023-01-12T08:34:41.499Z,101754.84
2023-01-12T08:37:09.782Z,101747.37
2023-01-12T08:39:36.984Z,101743.41
2023-01-12T08:42:04.126Z,101740.73
2023-01-12T08:44:37.013Z,101739.56
2023-01-12T08:47:04.847Z,101738.77
2023-01-12T08:49:32.326Z,101740.70
2023-01-12T08:51:59.335Z,101738.73
2023-01-12T08:54:26.630Z,101741.64
2023-01-12T08:56:54.969Z,101730.02
2023-01-12T08:59:22.283Z,101727.45
2023-01-12T09:01:49.561Z,101729.64
2023-01-12T09:04:16.860Z,101719.69
2023-01-12T09:06:44.995Z,101721.32
2023-01-12T09:09:17.099Z,101713.48
2023-01-12T09:11:44.714Z,101700.09
2023-01-12T09:14:12.114Z,101703.27
2023-01-12T09:16:39.377Z,101706.58
2023-01-12T09:19:06.733Z,101696.40
2023-01-12T09:21:36.949Z,101696.85
2023-01-12T09:24:04.711Z,101697.10
2023-01-12T09:26:32.985Z,101693.06
2023-01-12T09:29:00.448Z,101698.34
2023-01-12T09:31:28.395Z,101691.65
2023-01-12T09:33:56.302Z,101691.19
2023-01-12T09:36:25.538Z,101687.92
2023-01-12T09:38:52.773Z,101682.17
2023-01-12T09:41:40.772Z,101683.36
2023-01-12T09:44:47.170Z,101683.66
2023-01-12T09:47:22.303Z,101680.14
2023-01-12T09:50:13.993Z,101677.92
2023-01-12T09:52:45.006Z,101681.34
2023-01-12T09:55:19.632Z,101683.92
2023-01-12T09:58:05.075Z,101673.93
2023-01-12T10:00:32.599Z,101671.83
2023-01-12T10:03:14.737Z,101668.64
2023-01-12T10:05:52.994Z,101660.34
2023-01-12T10:08:39.548Z,101662.27
2023-01-12T10:11:16.760Z,101654.23
2023-01-12T10:14:21.761Z,101653.16
2023-01-12T10:16:58.218Z,101644.05
2023-01-12T10:19:56.616Z,101637.28
2023-01-12T10:22:38.313Z,101638.92
2023-01-12T10:25:48.764Z,101637.37
2023-01-12T10:28:24.492Z,101635.61
2023-01-12T10:30:51.912Z,101630.81
2023-01-12T10:33:24.095Z,101627.65
2023-01-12T10:36:16.624Z,101625.92
2023-01-12T10:38:57.972Z,101626.43
2023-01-12T10:41:28.868Z,101628.45
2023-01-12T10:43:56.708Z,101634.15
2023-01-12T10:46:24.545Z,101629.81
2023-01-12T10:48:54.868Z,101626.89
2023-01-12T10:51:23.254Z,101628.59
2023-01-12T10:54:09.734Z,101629.30
2023-01-12T10:56:39.433Z,101633.32
2023-01-12T10:59:11.000Z,101627.98
2023-01-12T11:01:52.125Z,101618.77
2023-01-12T11:04:23.836Z,101618.55
2023-01-12T11:07:02.856Z,101617.67
2023-01-12T11:09:32.394Z,101615.27
2023-01-12T11:12:01.316Z,101614.82
2023-01-12T11:14:30.356Z,101616.17
2023-01-12T11:17:05.015Z,101619.00
2023-01-12T11:19:38.575Z,101619.53
2023-01-12T11:22:17.987Z,101618.97
2023-01-12T11:24:53.592Z,101617.18
2023-01-12T11:27:39.972Z,101609.22
2023-01-12T11:30:15.969Z,101607.80
2023-01-12T11:33:09.187Z,101605.55
2023-01-12T11:35:47.304Z,101609.36
2023-01-12T11:38:19.217Z,101602.80
2023-01-12T11:40:46.312Z,101599.52
2023-01-12T11:43:47.766Z,101600.94
2023-01-12T11:46:18.428Z,101597.30
2023-01-12T11:49:12.114Z,101597.18
2023-01-12T11:51:39.318Z,101596.95
2023-01-12T11:54:07.038Z,101601.80
2023-01-12T11:56:46.356Z,101604.91
2023-01-12T11:59:14.938Z,101597.70
2023-01-12T12:02:01.669Z,101598.60
2023-01-12T12:04:34.915Z,101597.91
2023-01-12T12:07:05.450Z,101598.39
2023-01-12T12:09:50.944Z,101593.88
2023-01-12T12:12:36.923Z,101596.84
2023-01-12T12:15:34.255Z,101595.17
2023-01-12T12:18:25.780Z,101597.54
2023-01-12T12:21:23.597Z,101597.23
2023-01-12T12:24:16.113Z,101596.35
2023-01-12T12:26:52.666Z,101600.23
2023-01-12T12:30:03.647Z,101598.98
2023-01-12T12:32:30.651Z,101603.89
2023-01-12T12:35:45.900Z,101608.63
2023-01-12T12:38:17.905Z,101607.58
2023-01-12T12:41:28.911Z,101607.58
2023-01-12T12:44:33.836Z,101607.81
2023-01-12T12:47:06.920Z,101609.16
2023-01-12T12:49:35.063Z,101614.12
2023-01-12T12:52:02.100Z,101619.49
2023-01-12T12:54:29.333Z,101617.29
2023-01-12T12:56:56.492Z,101615.78
2023-01-12T12:59:38.870Z,101612.52
2023-01-12T13:02:43.957Z,101611.51
2023-01-12T13:05:11.063Z,101613.32
2023-01-12T13:07:42.138Z,101606.39
2023-01-12T13:10:31.634Z,101607.89
2023-01-12T13:13:04.064Z,101606.29
2023-01-12T13:15:37.017Z,101605.87
2023-01-12T13:18:04.725Z,101609.23
2023-01-12T13:20:49.820Z,101604.48
2023-01-12T13:23:43.842Z,101604.83
2023-01-12T13:26:36.731Z,101601.50
2023-01-12T13:29:37.535Z,101600.52
2023-01-12T13:32:23.323Z,101597.16
2023-01-12T13:34:52.136Z,101597.86
2023-01-12T13:37:19.128Z,101604.10
2023-01-12T13:40:10.820Z,101596.32
2023-01-12T13:42:56.569Z,101600.55
2023-01-12T13:45:23.600Z,101598.36
2023-01-12T13:47:51.387Z,101599.69
2023-01-12T13:50:20.981Z,101597.64
2023-01-12T13:53:01.862Z,101602.20
2023-01-12T13:55:31.265Z,101595.27
2023-01-12T13:58:05.464Z,101593.41
2023-01-12T14:00:33.272Z,101597.41
2023-01-12T14:03:00.550Z,101596.05
2023-01-12T14:06:03.383Z,101601.49
2023-01-12T14:09:06.374Z,101601.70
2023-01-12T14:11:49.819Z,101604.59
2023-01-12T14:15:01.814Z,101602.89
2023-01-12T14:17:49.164Z,101601.55
2023-01-12T14:20:18.326Z,101604.78
2023-01-12T14:22:48.272Z,101606.36
2023-01-12T14:25:16.700Z,101605.19
2023-01-12T14:27:54.335Z,101604.85
2023-01-12T14:30:22.392Z,101598.95
2023-01-12T14:32:50.155Z,101596.95
2023-01-12T14:35:22.290Z,101596.30
2023-01-12T14:37:59.734Z,101597.44
2023-01-12T14:40:33.227Z,101600.46
2023-01-12T14:43:19.416Z,101601.13
2023-01-12T14:46:09.244Z,101600.42
2023-01-12T14:48:42.501Z,101597.38
2023-01-12T14:51:36.483Z,101591.27
2023-01-12T14:54:03.635Z,101592.11
2023-01-12T14:56:40.187Z,101590.05
2023-01-12T14:59:17.780Z,101589.52
2023-01-12T15:01:44.974Z,101586.96
2023-01-12T15:04:22.634Z,101584.40
2023-01-12T15:07:14.599Z,101579.65
2023-01-12T15:09:55.157Z,101577.14
2023-01-12T15:12:28.518Z,101573.77
2023-01-12T15:15:15.293Z,101573.40
2023-01-12T15:18:01.118Z,101572.70
2023-01-12T15:20:48.460Z,101571.50
2023-01-12T15:23:34.437Z,101566.57
2023-01-12T15:26:01.553Z,101561.96
2023-01-12T15:28:30.335Z,101563.09
2023-01-12T15:30:57.331Z,101564.88
2023-01-12T15:33:24.382Z,101565.96
2023-01-12T15:35:51.416Z,101560.98
2023-01-12T15:38:18.567Z,101558.52
2023-01-12T15:40:47.834Z,101557.06
2023-01-12T15:43:16.066Z,101557.50
2023-01-12T15:45:46.897Z,101557.49
2023-01-12T15:48:14.640Z,101550.58
2023-01-12T15:50:42.768Z,101550.27
2023-01-12T15:53:14.884Z,101546.20
2023-01-12T15:55:42.041Z,101551.43
2023-01-12T15:58:10.886Z,101544.70
2023-01-12T16:00:37.968Z,101552.83
2023-01-12T16:03:05.115Z,101549.27
2023-01-12T16:05:32.333Z,101541.50
2023-01-12T20:19:12.183Z,101440.35
2023-01-12T20:21:39.586Z,101437.14
2023-01-12T20:24:07.059Z,101435.48
2023-01-12T20:26:34.906Z,101435.29
2023-01-12T20:29:02.184Z,101434.85
2023-01-12T20:31:29.802Z,101440.33
2023-01-12T20:33:57.075Z,101436.65
2023-01-12T20:36:24.329Z,101432.05
2023-01-12T20:38:52.039Z,101433.58
2023-01-12T20:41:19.589Z,101436.29
2023-01-12T20:43:46.698Z,101431.54
2023-01-12T20:46:14.301Z,101432.95
2023-01-12T20:48:42.070Z,101431.83
2023-01-12T20:51:12.380Z,101425.65
2023-01-12T20:53:39.749Z,101424.27
2023-01-12T20:56:07.267Z,101428.25
2023-01-12T20:58:34.418Z,101427.39
2023-01-12T21:01:01.766Z,101424.27
2023-01-12T21:03:29.445Z,101422.22
2023-01-12T21:05:56.627Z,101419.52
2023-01-12T21:08:23.729Z,101419.73
2023-01-12T21:10:51.998Z,101422.19
2023-01-12T21:13:20.335Z,101422.92
2023-01-12T21:15:47.940Z,101424.08
2023-01-12T21:18:15.158Z,101419.83
2023-01-12T21:20:43.261Z,101422.02
2023-01-12T21:23:10.312Z,101411.85
2023-01-12T21:25:42.075Z,101419.16
2023-01-12T21:28:10.684Z,101412.84
2023-01-12T21:30:38.535Z,101412.65
2023-01-12T21:33:05.684Z,101414.06
2023-01-12T21:35:32.678Z,101419.98
2023-01-12T21:37:59.730Z,101423.15
2023-01-12T21:40:26.830Z,101420.30
2023-01-12T21:43:09.178Z,101417.19
2023-01-12T21:45:39.890Z,101419.48
2023-01-12T21:48:07.719Z,101420.86
2023-01-12T21:50:34.871Z,101421.34
2023-01-12T21:53:04.936Z,101425.88
2023-01-12T21:55:32.553Z,101423.84
2023-01-12T21:57:59.969Z,101417.66
2023-01-12T22:00:27.173Z,101420.58
2023-01-12T22:02:55.180Z,101413.14
2023-01-12T22:05:22.832Z,101415.25
2023-01-12T22:07:50.421Z,101412.17
2023-01-12T22:10:21.956Z,101410.76
2023-01-12T22:12:55.717Z,101413.95
2023-01-12T22:15:25.662Z,101412.15
2023-01-12T22:17:54.366Z,101408.21
2023-01-12T22:20:21.924Z,101404.98
2023-01-12T22:22:49.179Z,101405.27
2023-01-12T22:25:16.680Z,101402.97
2023-01-12T22:27:44.405Z,101399.40
2023-01-12T22:30:13.875Z,101402.88
2023-01-12T22:32:41.605Z,101408.55
2023-01-12T22:35:09.273Z,101404.13
2023-01-12T22:37:37.310Z,101402.26
2023-01-12T22:40:05.929Z,101400.84
2023-01-12T22:42:51.742Z,101403.20
2023-01-12T22:45:18.787Z,101399.61
2023-01-12T22:47:48.581Z,101403.86
2023-01-12T22:50:16.169Z,101406.46
2023-01-12T22:52:43.286Z,101405.77
2023-01-12T22:55:10.355Z,101409.34
2023-01-12T22:57:37.452Z,101410.10
2023-01-12T23:00:05.040Z,101411.38
2023-01-12T23:02:51.203Z,101410.67
2023-01-12T23:05:18.872Z,101409.91
2023-01-12T23:07:46.061Z,101406.79
2023-01-12T23:10:13.203Z,101409.20
2023-01-12T23:12:40.253Z,101408.92
2023-01-12T23:15:08.127Z,101408.55
2023-01-12T23:17:37.116Z,101411.23
2023-01-12T23:20:04.628Z,101411.71
2023-01-12T23:22:32.043Z,101409.66
2023-01-12T23:24:59.154Z,101408.48
2023-01-12T23:27:26.228Z,101410.64
2023-01-12T23:29:53.245Z,101405.86
2023-01-12T23:32:20.428Z,101404.36
2023-01-12T23:34:47.557Z,101408.76
2023-01-12T23:37:14.925Z,101405.23
2023-01-12T23:39:42.075Z,101403.60
2023-01-12T23:42:09.157Z,101401.52
2023-01-12T23:44:36.298Z,101403.22
2023-01-12T23:47:05.399Z,101408.61
2023-01-12T23:49:32.519Z,101409.79
2023-01-12T23:51:59.669Z,101414.42
2023-01-12T23:54:26.845Z,101415.20
2023-01-12T23:56:54.010Z,101412.42
2023-01-12T23:59:21.117Z,101412.63
